Time;durP1;ratioP1;P1;durP2;ratioP2;P2;SDS_P1;SDS_P2;PMS_P1;PMS_P2;Temp;Humidity;BMP_temperature;BMP_pressure;BME280_temperature;BME280_humidity;BME280_pressure;Samples;Min_cycle;Max_cycle;Signal;HPM_P1;HPM_P2
2023/06/21 00:02:16;;;;;;;;;15.50;11.00;;;;;23.28;50.90;100872.44;5021151;28;45205;-66
2023/06/21 00:04:41;;;;;;;;;11.50;11.50;;;;;23.26;50.95;100878.81;5020845;28;46084;-65
2023/06/21 00:07:07;;;;;;;;;14.00;11.75;;;;;23.25;51.10;100875.28;5021232;28;45383;-65
2023/06/21 00:09:32;;;;;;;;;11.75;10.75;;;;;23.25;50.94;100872.63;5021273;28;45387;-66
2023/06/21 00:11:57;;;;;;;;;10.25;8.25;;;;;23.22;50.93;100864.78;5020979;28;45430;-65
2023/06/21 00:14:23;;;;;;;;;9.75;8.75;;;;;23.21;51.21;100869.28;5021140;28;45392;-65
2023/06/21 00:16:48;;;;;;;;;9.50;8.50;;;;;23.20;51.21;100869.38;5020727;28;45340;-65
2023/06/21 00:19:14;;;;;;;;;9.50;9.50;;;;;23.16;50.89;100867.88;5021122;28;45453;-65
2023/06/21 00:21:39;;;;;;;;;6.00;5.00;;;;;23.14;51.34;100861.69;5020766;28;45377;-65
2023/06/21 00:24:07;;;;;;;;;9.00;9.00;;;;;23.13;51.11;100859.97;5020949;28;45296;-65
2023/06/21 00:26:33;;;;;;;;;10.00;8.75;;;;;23.11;51.06;100867.28;5020516;28;45241;-65
2023/06/21 00:28:58;;;;;;;;;7.00;7.00;;;;;23.07;51.08;100868.41;5021209;28;45253;-65
2023/06/21 00:31:23;;;;;;;;;9.25;8.25;;;;;23.07;51.25;100868.41;5020819;28;45547;-65
2023/06/21 00:33:49;;;;;;;;;9.00;9.00;;;;;23.02;51.31;100863.38;5020850;28;46069;-65
2023/06/21 00:36:14;;;;;;;;;12.00;10.00;;;;;23.01;51.15;100858.97;5020457;28;45307;-65
2023/06/21 00:38:39;;;;;;;;;8.00;7.00;;;;;22.98;51.26;100861.84;5021029;28;45249;-65
2023/06/21 00:41:05;;;;;;;;;7.00;7.00;;;;;22.95;51.44;100857.53;5020625;28;45216;-65
2023/06/21 00:43:31;;;;;;;;;9.00;9.00;;;;;22.92;51.06;100863.09;5020601;28;46402;-65
2023/06/21 00:45:57;;;;;;;;;10.75;9.00;;;;;22.92;51.35;100867.59;5035784;28;45383;-65
2023/06/21 00:48:23;;;;;;;;;8.00;6.75;;;;;22.88;51.09;100858.91;5020840;28;45258;-65
2023/06/21 00:50:48;;;;;;;;;9.50;9.50;;;;;22.87;51.20;100868.75;5020345;28;45329;-65
2023/06/21 00:53:14;;;;;;;;;10.50;8.00;;;;;22.86;51.32;100868.84;5020471;28;46120;-65
2023/06/21 00:55:42;;;;;;;;;8.75;7.50;;;;;22.83;51.42;100875.28;5020369;28;45266;-65
2023/06/21 00:58:09;;;;;;;;;9.50;9.00;;;;;22.80;51.23;100871.91;5020552;28;45289;-65
2023/06/21 01:00:35;;;;;;;;;10.00;8.25;;;;;22.77;51.40;100880.16;5020183;28;45424;-65
2023/06/21 01:03:01;;;;;;;;;13.75;9.75;;;;;22.76;51.36;100892.69;5020105;28;45926;-65
2023/06/21 01:05:30;;;;;;;;;8.50;8.50;;;;;22.72;51.36;100886.66;5020096;28;45226;-65
2023/06/21 01:08:27;;;;;;;;;12.25;10.50;;;;;22.72;51.38;100897.38;5020467;28;45276;-65
2023/06/21 01:11:20;;;;;;;;;12.00;11.00;;;;;22.71;51.60;100895.63;5019649;28;45257;-65
2023/06/21 01:14:23;;;;;;;;;9.75;9.75;;;;;22.69;51.32;100902.94;5020018;28;46133;-65
2023/06/21 01:16:51;;;;;;;;;10.75;8.25;;;;;22.69;51.44;100900.25;5019684;28;45355;-65
2023/06/21 01:19:36;;;;;;;;;9.00;8.00;;;;;22.70;51.63;100909.13;5035474;28;45202;-65
2023/06/21 01:22:32;;;;;;;;;9.75;7.00;;;;;22.67;51.47;100912.03;5019925;28;45564;-65
2023/06/21 01:25:12;;;;;;;;;8.75;8.75;;;;;22.67;51.34;100909.34;5010390;28;46431;-65
2023/06/21 01:27:40;;;;;;;;;9.50;9.25;;;;;22.66;51.50;100915.66;5020083;28;45408;-65
2023/06/21 01:30:09;;;;;;;;;7.50;7.00;;;;;22.64;51.70;100918.44;5018762;28;45351;-65
2023/06/21 01:32:34;;;;;;;;;9.50;8.75;;;;;22.62;51.69;100919.47;5019833;28;45604;-65
2023/06/21 01:35:01;;;;;;;;;5.25;5.25;;;;;22.58;51.91;100924.16;5034663;28;46251;-65
2023/06/21 01:37:26;;;;;;;;;8.50;8.00;;;;;22.58;51.32;100923.28;5019907;28;45337;-65
2023/06/21 01:39:52;;;;;;;;;8.00;7.00;;;;;22.57;52.00;100927.78;5019639;28;45399;-65
2023/06/21 01:42:18;;;;;;;;;6.25;6.00;;;;;22.54;51.75;100920.81;5018576;28;45389;-65
2023/06/21 01:44:44;;;;;;;;;8.50;7.25;;;;;22.53;51.71;100928.94;5019532;28;47247;-65
2023/06/21 01:47:09;;;;;;;;;6.50;6.50;;;;;22.49;51.79;100922.91;5019697;28;45266;-65
2023/06/21 01:49:37;;;;;;;;;8.00;8.00;;;;;22.48;51.94;100925.69;5018275;28;45428;-65
2023/06/21 01:52:04;;;;;;;;;7.00;6.00;;;;;22.45;51.75;100933.91;5019974;28;45274;-65
2023/06/21 01:54:31;;;;;;;;;6.00;6.00;;;;;22.45;51.92;100934.78;5019450;28;46197;-65
2023/06/21 01:57:01;;;;;;;;;6.25;6.25;;;;;22.42;51.80;100936.78;5019566;28;45475;-65
2023/06/21 01:59:30;;;;;;;;;5.50;5.50;;;;;22.42;51.95;100947.47;5019467;28;45471;-65
2023/06/21 02:01:58;;;;;;;;;6.75;6.25;;;;;22.41;51.52;100949.28;5034951;28;45186;-65
2023/06/21 02:04:25;;;;;;;;;6.25;5.50;;;;;22.37;51.86;100945.94;5019166;28;46978;-65
2023/06/21 02:06:52;;;;;;;;;6.25;5.75;;;;;22.34;51.97;100939.84;5019369;28;45353;-65
2023/06/21 02:09:19;;;;;;;;;7.00;6.50;;;;;22.34;51.72;100943.41;5034774;28;45277;-65
2023/06/21 02:11:45;;;;;;;;;7.25;6.75;;;;;22.33;51.93;100946.19;5019394;28;45190;-65
2023/06/21 02:14:10;;;;;;;;;6.00;6.00;;;;;22.31;51.63;100942.75;5019156;28;45928;-65
2023/06/21 02:16:35;;;;;;;;;8.00;6.50;;;;;22.28;51.96;100941.09;5019171;28;45167;-65
2023/06/21 02:19:01;;;;;;;;;4.00;4.00;;;;;22.28;51.61;100937.59;5019443;28;45232;-65
2023/06/21 02:21:26;;;;;;;;;5.25;5.25;;;;;22.23;52.18;100930.66;5018800;28;56391;-65
2023/06/21 02:23:52;;;;;;;;;7.25;5.25;;;;;22.23;52.15;100944.06;5021457;28;47181;-65
2023/06/21 02:26:17;;;;;;;;;6.00;6.00;;;;;22.21;52.00;100940.63;5037953;28;45433;-65
2023/06/21 02:28:43;;;;;;;;;7.00;6.00;;;;;22.19;52.06;100945.19;5038164;28;45436;-65
2023/06/21 02:31:09;;;;;;;;;9.75;7.25;;;;;22.18;52.25;100938.13;5022846;28;45390;-65
2023/06/21 02:33:34;;;;;;;;;6.50;5.50;;;;;22.15;52.25;100937.44;5022353;28;46218;-65
2023/06/21 02:35:59;;;;;;;;;7.00;6.00;;;;;22.14;52.25;100941.06;5022367;28;45400;-65
2023/06/21 02:38:25;;;;;;;;;8.75;8.00;;;;;22.13;52.27;100934.84;5022465;28;45408;-65
2023/06/21 02:40:54;;;;;;;;;6.75;6.75;;;;;22.13;52.23;100934.00;5022679;28;45266;-65
2023/06/21 02:43:20;;;;;;;;;9.25;8.00;;;;;22.05;51.80;100927.28;5037219;28;47512;-65
2023/06/21 02:45:46;;;;;;;;;5.00;4.25;;;;;22.10;51.85;100940.41;5022399;28;45244;-65
2023/06/21 02:48:12;;;;;;;;;7.25;7.25;;;;;22.09;52.14;100938.69;5022407;28;45348;-65
2023/06/21 02:50:37;;;;;;;;;5.25;5.25;;;;;22.09;52.24;100949.38;5020885;28;45603;-65
2023/06/21 02:53:02;;;;;;;;;5.00;5.00;;;;;22.06;52.21;100936.16;5022238;28;45332;-65
2023/06/21 02:55:28;;;;;;;;;7.00;5.00;;;;;22.06;52.10;100939.72;5022167;28;45359;-65
2023/06/21 02:57:54;;;;;;;;;6.25;5.25;;;;;22.06;52.16;100941.53;5022384;28;45238;-65
2023/06/21 03:00:22;;;;;;;;;5.00;5.00;;;;;22.08;52.19;100951.19;5022301;28;45286;-65
2023/06/21 03:02:49;;;;;;;;;8.00;5.25;;;;;22.05;52.63;100946.03;5021878;28;46333;-65
2023/06/21 03:05:15;;;;;;;;;5.75;4.50;;;;;22.08;51.86;100950.31;5021792;28;45284;-65
2023/06/21 03:07:46;;;;;;;;;7.25;7.25;;;;;22.05;52.21;100951.38;5022341;28;45246;-65
2023/06/21 03:10:13;;;;;;;;;7.50;7.50;;;;;22.05;51.96;100953.19;5020776;28;45279;-65
2023/06/21 03:12:44;;;;;;;;;7.75;5.50;;;;;22.04;52.03;100957.69;5037349;28;48155;-65
2023/06/21 03:15:10;;;;;;;;;10.00;8.50;;;;;22.05;51.95;100953.19;5021589;28;45268;-65
2023/06/21 03:17:37;;;;;;;;;7.25;5.75;;;;;22.03;52.38;100955.94;5022236;28;45353;-65
2023/06/21 03:20:08;;;;;;;;;9.75;8.50;;;;;22.03;52.36;100958.63;5021698;28;45512;-65
2023/06/21 03:22:34;;;;;;;;;6.00;5.25;;;;;22.01;52.21;100963.22;5021655;28;46889;-65
2023/06/21 03:24:59;;;;;;;;;5.00;5.00;;;;;22.03;52.57;100953.28;5021528;28;45254;-65
2023/06/21 03:27:24;;;;;;;;;6.00;5.00;;;;;22.03;52.54;100955.94;5022273;28;45293;-65
2023/06/21 03:29:50;;;;;;;;;6.00;5.00;;;;;22.03;52.32;100955.94;5021717;28;45489;-65
2023/06/21 03:32:15;;;;;;;;;4.25;4.25;;;;;22.03;52.34;100960.44;5037081;28;47065;-65
2023/06/21 03:34:40;;;;;;;;;7.25;6.25;;;;;22.01;52.45;100957.88;5021224;28;45320;-65
2023/06/21 03:37:06;;;;;;;;;7.25;5.75;;;;;22.02;52.45;100956.03;5022035;28;45403;-65
2023/06/21 03:39:31;;;;;;;;;7.00;5.75;;;;;22.01;52.70;100960.53;5021463;28;45388;-65
2023/06/21 03:41:56;;;;;;;;;6.75;5.50;;;;;22.02;52.47;100962.25;5021676;28;45363;-65
2023/06/21 03:44:21;;;;;;;;;6.50;5.00;;;;;22.02;52.51;100967.59;5021489;28;45199;-65
2023/06/21 03:46:47;;;;;;;;;6.00;6.00;;;;;22.01;52.50;100967.69;5021674;28;45324;-65
2023/06/21 03:49:12;;;;;;;;;6.00;5.00;;;;;22.00;52.64;100976.66;5021470;28;45511;-65
2023/06/21 03:51:37;;;;;;;;;5.00;3.50;;;;;22.00;52.65;100984.69;5021416;28;45201;-65
2023/06/21 03:54:03;;;;;;;;;8.00;8.00;;;;;21.99;52.77;101005.25;5021345;28;45541;-65
2023/06/21 03:56:29;;;;;;;;;6.00;6.00;;;;;21.99;52.53;101004.41;5021544;28;45211;-65
2023/06/21 03:58:54;;;;;;;;;10.50;9.50;;;;;21.95;52.82;101006.38;5019438;28;52750;-65
2023/06/21 04:01:20;;;;;;;;;10.00;9.25;;;;;21.98;52.96;101008.00;5021166;28;45969;-65
2023/06/21 04:03:45;;;;;;;;;12.50;11.00;;;;;21.96;52.67;101018.81;5021068;28;45166;-65
2023/06/21 04:06:10;;;;;;;;;6.00;5.50;;;;;21.97;52.39;101017.00;5020942;28;45316;-65
2023/06/21 04:08:35;;;;;;;;;5.75;5.75;;;;;21.95;52.44;101016.19;5021174;28;45187;-65
2023/06/21 04:11:01;;;;;;;;;5.00;5.00;;;;;21.96;52.49;101017.94;5021201;28;46066;-65
2023/06/21 04:13:26;;;;;;;;;10.50;9.50;;;;;21.97;52.76;101025.84;5020984;28;45223;-65
2023/06/21 04:15:51;;;;;;;;;18.25;16.00;;;;;21.99;52.53;101034.66;5036440;28;45357;-65
2023/06/21 04:18:17;;;;;;;;;8.50;8.50;;;;;21.97;52.80;101031.22;5020911;28;45447;-65
2023/06/21 04:20:42;;;;;;;;;12.25;10.25;;;;;22.00;52.75;101040.88;5020614;28;45372;-65
2023/06/21 04:23:07;;;;;;;;;6.00;5.00;;;;;21.99;52.76;101041.84;5019690;28;45490;-65
2023/06/21 04:25:33;;;;;;;;;8.00;6.00;;;;;21.99;53.08;101048.06;5020838;28;45364;-65
2023/06/21 04:27:58;;;;;;;;;7.75;7.50;;;;;22.00;52.71;101057.81;5020914;28;45614;-65
2023/06/21 04:30:23;;;;;;;;;9.50;5.25;;;;;22.00;52.86;101068.50;5020689;28;45299;-65
2023/06/21 04:32:49;;;;;;;;;6.00;6.00;;;;;22.00;52.53;101065.84;5020748;28;45340;-65
2023/06/21 04:35:16;;;;;;;;;11.50;8.00;;;;;21.99;52.81;101069.44;5019356;28;45371;-65
2023/06/21 04:37:45;;;;;;;;;7.00;7.00;;;;;22.00;53.06;101073.84;5020807;28;45251;-65
2023/06/21 04:40:17;;;;;;;;;6.00;6.00;;;;;21.99;53.18;101082.84;5020575;28;47052;-65
2023/06/21 04:42:44;;;;;;;;;6.00;6.00;;;;;21.99;52.89;101085.50;5035923;28;45218;-65
2023/06/21 04:45:14;;;;;;;;;6.75;5.75;;;;;21.98;53.02;101085.59;5020211;28;45432;-65
2023/06/21 04:47:41;;;;;;;;;7.75;7.25;;;;;21.98;52.96;101102.50;5020394;28;45553;-65
2023/06/21 04:50:07;;;;;;;;;8.00;7.50;;;;;21.95;52.80;101100.00;5035603;28;46185;-65
2023/06/21 04:52:32;;;;;;;;;9.50;7.50;;;;;21.97;53.05;101103.44;5020309;28;45367;-65
2023/06/21 04:54:59;;;;;;;;;6.00;6.00;;;;;21.98;53.03;101104.31;5019247;28;45342;-65
2023/06/21 04:57:25;;;;;;;;;8.00;7.25;;;;;21.97;53.06;101097.25;5020341;28;45333;-65
2023/06/21 04:59:51;;;;;;;;;8.00;8.00;;;;;21.96;52.94;101112.44;5020410;28;45404;-65
2023/06/21 05:02:16;;;;;;;;;7.00;7.00;;;;;21.96;53.03;101109.78;5020204;28;45237;-65
2023/06/21 05:04:41;;;;;;;;;7.75;6.75;;;;;21.94;52.68;101111.66;5020271;28;45373;-65
2023/06/21 05:07:06;;;;;;;;;8.25;7.00;;;;;21.92;52.86;101109.06;5020179;28;45929;-65
2023/06/21 05:09:32;;;;;;;;;8.50;7.50;;;;;21.90;53.07;101110.13;5020307;28;45986;-65
2023/06/21 05:11:57;;;;;;;;;10.25;10.25;;;;;21.89;53.27;101111.06;5019977;28;45385;-65
2023/06/21 05:14:22;;;;;;;;;10.00;10.00;;;;;21.91;53.23;101123.41;5020496;28;45412;-65
2023/06/21 05:16:48;;;;;;;;;7.25;5.25;;;;;21.88;52.92;101120.03;5019849;28;45601;-65
2023/06/21 05:19:14;;;;;;;;;7.75;7.75;;;;;21.89;53.15;101125.28;5020015;28;45426;-66
2023/06/21 05:21:42;;;;;;;;;9.25;7.50;;;;;21.88;53.20;101130.72;5019843;28;45313;-65
2023/06/21 05:24:07;;;;;;;;;8.00;5.25;;;;;21.86;53.10;101128.16;5020127;28;45435;-65
2023/06/21 05:26:33;;;;;;;;;19.75;18.75;;;;;21.85;53.22;101122.88;5019555;28;45361;-65
2023/06/21 05:28:58;;;;;;;;;8.00;7.00;;;;;21.82;53.18;101118.53;5012609;28;46051;-65
2023/06/21 05:31:23;;;;;;;;;11.00;10.75;;;;;21.85;53.68;101128.25;5016081;28;45202;-66
2023/06/21 05:33:49;;;;;;;;;8.50;8.50;;;;;21.82;53.07;101123.88;5020181;28;45229;-65
2023/06/21 05:36:14;;;;;;;;;10.25;9.00;;;;;21.80;53.24;101119.56;5019721;28;45451;-65
2023/06/21 05:38:39;;;;;;;;;8.75;7.75;;;;;21.82;53.63;101123.03;5019735;28;46107;-65
2023/06/21 05:41:05;;;;;;;;;12.00;9.00;;;;;21.79;53.27;101117.88;5019875;28;45162;-65
2023/06/21 05:43:30;;;;;;;;;8.00;7.50;;;;;21.79;53.52;101118.72;5020117;28;45223;-65
2023/06/21 05:45:56;;;;;;;;;9.75;8.50;;;;;21.78;53.73;101119.66;5019728;28;45497;-65
2023/06/21 05:48:21;;;;;;;;;9.00;6.25;;;;;21.79;53.68;101115.19;5019769;28;46810;-65
2023/06/21 05:50:47;;;;;;;;;9.00;6.00;;;;;21.79;53.55;101117.88;5019523;28;45391;-65
2023/06/21 05:53:12;;;;;;;;;9.00;8.00;;;;;21.79;53.49;101121.41;5019846;28;45505;-64
2023/06/21 05:55:37;;;;;;;;;9.00;8.00;;;;;21.79;53.49;101115.19;5019516;28;45394;-64
2023/06/21 05:58:03;;;;;;;;;11.25;9.25;;;;;21.78;53.56;101119.66;5019707;28;45884;-65
2023/06/21 06:00:30;;;;;;;;;8.50;7.00;;;;;21.79;53.57;101115.19;5023209;28;45380;-64
2023/06/21 06:02:56;;;;;;;;;9.00;8.50;;;;;21.80;53.61;101124.94;5022017;28;45285;-64
2023/06/21 06:05:21;;;;;;;;;9.00;8.50;;;;;21.79;53.50;101118.72;5022760;28;45547;-64
2023/06/21 06:07:47;;;;;;;;;8.25;7.00;;;;;21.66;53.60;101105.19;5022998;28;45297;-64
2023/06/21 06:10:12;;;;;;;;;14.00;9.50;;;;;21.81;53.46;101123.97;5022912;28;45296;-64
2023/06/21 06:12:37;;;;;;;;;8.25;7.75;;;;;21.83;53.84;101122.09;5022943;28;45209;-65
2023/06/21 06:15:03;;;;;;;;;10.00;9.75;;;;;21.86;53.28;101129.94;5022695;28;45300;-66
2023/06/21 06:17:30;;;;;;;;;12.00;9.50;;;;;21.84;53.91;101121.16;5022748;28;46894;-65
2023/06/21 06:19:55;;;;;;;;;7.75;7.75;;;;;21.87;53.96;101129.88;5022636;28;45333;-65
2023/06/21 06:22:20;;;;;;;;;12.75;10.00;;;;;21.89;53.75;101135.97;5022813;28;45340;-65
2023/06/21 06:24:48;;;;;;;;;13.50;10.50;;;;;21.93;53.94;101131.34;5022622;28;45167;-65
2023/06/21 06:27:13;;;;;;;;;9.00;8.50;;;;;21.92;53.85;101124.25;5022518;28;46366;-66
2023/06/21 06:29:39;;;;;;;;;10.00;9.25;;;;;21.97;53.57;101138.22;5022615;28;45271;-65
2023/06/21 06:32:04;;;;;;;;;13.00;12.00;;;;;22.00;53.80;101137.19;5022782;28;45600;-65
2023/06/21 06:34:30;;;;;;;;;10.50;9.75;;;;;22.02;53.87;101135.31;5022525;28;45377;-65
2023/06/21 06:36:55;;;;;;;;;11.25;10.50;;;;;22.04;53.61;101125.38;5022506;28;45903;-65
2023/06/21 06:39:20;;;;;;;;;9.75;9.75;;;;;22.06;53.91;101129.69;5022725;28;45432;-65
2023/06/21 06:41:46;;;;;;;;;12.50;10.00;;;;;22.10;54.20;101137.53;5022513;28;45684;-65
2023/06/21 06:44:11;;;;;;;;;11.75;11.00;;;;;22.12;53.79;101138.34;5022332;28;50980;-65
2023/06/21 06:46:36;;;;;;;;;12.25;10.25;;;;;22.15;54.22;101143.50;5022207;28;46081;-65
2023/06/21 06:49:02;;;;;;;;;14.25;12.50;;;;;22.18;54.03;101148.69;5022670;28;45306;-65
2023/06/21 06:51:27;;;;;;;;;12.00;10.75;;;;;22.23;54.13;101157.31;5022301;28;45436;-65
2023/06/21 06:53:52;;;;;;;;;10.00;10.00;;;;;22.26;54.04;101154.44;5022497;28;45246;-65
2023/06/21 06:56:17;;;;;;;;;12.75;12.75;;;;;22.29;54.09;101159.66;5021852;28;48171;-63
2023/06/21 06:58:43;;;;;;;;;11.75;11.00;;;;;22.34;54.23;101162.03;5022377;28;45295;-63
2023/06/21 07:01:09;;;;;;;;;10.00;9.25;;;;;22.38;53.81;101164.50;5021027;28;45242;-63
2023/06/21 07:03:34;;;;;;;;;12.00;9.00;;;;;22.40;54.10;101157.25;5022165;28;45540;-63
2023/06/21 07:06:00;;;;;;;;;13.50;13.00;;;;;22.46;54.00;101165.88;5021695;28;45288;-63
2023/06/21 07:08:26;;;;;;;;;12.25;9.75;;;;;22.49;54.04;101160.34;5021724;28;45331;-65
2023/06/21 07:10:52;;;;;;;;;16.00;13.50;;;;;22.54;53.91;101155.56;5037422;28;45392;-64
2023/06/21 07:13:18;;;;;;;;;10.50;10.00;;;;;22.57;54.22;101158.09;5022261;28;45407;-65
2023/06/21 07:15:44;;;;;;;;;20.25;18.50;;;;;22.60;54.01;101162.41;5021534;28;46295;-65
2023/06/21 07:18:12;;;;;;;;;11.25;11.25;;;;;22.64;54.22;101170.19;5021906;28;45431;-65
2023/06/21 07:20:38;;;;;;;;;12.75;10.25;;;;;22.68;53.97;101168.19;5021629;28;45418;-65
2023/06/21 07:23:03;;;;;;;;;11.50;9.25;;;;;22.68;54.01;101158.31;5021806;28;45474;-65
2023/06/21 07:25:29;;;;;;;;;11.00;10.50;;;;;22.76;54.03;101165.06;5021538;28;46358;-65
2023/06/21 07:27:54;;;;;;;;;10.50;9.50;;;;;22.83;54.34;101169.06;5021792;28;45276;-65
2023/06/21 07:30:22;;;;;;;;;14.00;12.00;;;;;22.85;54.01;101168.03;5022127;28;45442;-65
2023/06/21 07:32:47;;;;;;;;;9.00;9.00;;;;;22.90;53.96;101173.13;5021791;28;45466;-64
2023/06/21 07:35:14;;;;;;;;;11.00;11.00;;;;;22.93;53.55;101170.28;5021175;28;46025;-64
2023/06/21 07:37:41;;;;;;;;;10.25;9.00;;;;;22.92;53.92;101163.19;5021675;28;45389;-64
2023/06/21 07:40:08;;;;;;;;;13.25;11.75;;;;;23.01;54.13;101172.50;5021429;28;45547;-64
2023/06/21 07:42:33;;;;;;;;;18.25;14.25;;;;;23.06;53.87;101162.34;5021656;28;45400;-64
2023/06/21 07:44:59;;;;;;;;;14.25;11.00;;;;;23.11;53.68;101162.94;5021566;28;45282;-65
2023/06/21 07:47:24;;;;;;;;;13.50;11.25;;;;;23.16;54.16;101165.38;5021473;28;45209;-65
2023/06/21 07:49:50;;;;;;;;;13.25;12.00;;;;;23.17;53.91;101151.88;5020193;28;45299;-65
2023/06/21 07:52:16;;;;;;;;;11.00;10.00;;;;;23.21;54.15;101157.91;5020218;28;45261;-65
2023/06/21 07:54:43;;;;;;;;;10.50;9.50;;;;;23.24;54.03;101160.41;5036472;28;45992;-65
2023/06/21 07:57:09;;;;;;;;;12.75;10.25;;;;;23.30;53.89;101169.91;5021427;28;45383;-64
2023/06/21 07:59:34;;;;;;;;;11.25;9.25;;;;;23.31;54.17;101161.75;5021485;28;45339;-68
2023/06/21 08:01:59;;;;;;;;;10.75;10.75;;;;;23.39;53.89;101174.69;5021402;28;45406;-64
2023/06/21 08:04:25;;;;;;;;;10.75;10.75;;;;;23.43;54.20;101173.53;5020834;28;45312;-65
2023/06/21 08:06:50;;;;;;;;;9.50;8.50;;;;;23.47;53.85;101179.56;5021036;28;52366;-65
2023/06/21 08:09:16;;;;;;;;;11.25;11.25;;;;;23.50;53.75;101166.84;5036735;28;45422;-65
2023/06/21 08:11:41;;;;;;;;;10.50;10.50;;;;;23.55;53.76;101171.94;5021042;28;45446;-65
2023/06/21 08:14:07;;;;;;;;;11.25;11.25;;;;;23.61;53.49;101184.97;5021051;28;46346;-65
2023/06/21 08:16:32;;;;;;;;;11.25;9.50;;;;;23.66;53.66;101190.00;5020854;28;45261;-65
2023/06/21 08:18:57;;;;;;;;;12.00;11.00;;;;;23.67;53.60;101191.75;5020956;28;45258;-65
2023/06/21 08:21:23;;;;;;;;;2.00;1.50;;;;;23.74;54.03;101200.28;5019851;28;45517;-65
2023/06/21 08:23:48;;;;;;;;;9.75;9.50;;;;;23.77;53.54;101198.28;5020850;28;46582;-65
2023/06/21 08:26:14;;;;;;;;;10.50;10.00;;;;;23.83;53.54;101205.91;5020759;28;45273;-65
2023/06/21 08:28:39;;;;;;;;;8.50;8.50;;;;;23.87;53.17;101195.84;5021008;28;45226;-65
2023/06/21 08:31:04;;;;;;;;;11.00;10.00;;;;;23.93;53.70;101190.13;5020884;28;45493;-65
2023/06/21 08:33:30;;;;;;;;;10.50;10.00;;;;;23.94;53.15;101189.19;5020689;28;46351;-65
2023/06/21 08:35:55;;;;;;;;;10.50;10.50;;;;;24.02;53.30;101189.56;5020665;28;45380;-65
2023/06/21 08:38:20;;;;;;;;;10.00;10.00;;;;;24.07;53.21;101183.88;5019453;28;45334;-65
2023/06/21 08:40:46;;;;;;;;;11.50;9.00;;;;;24.11;53.26;101187.22;5020340;28;53223;-65
2023/06/21 08:43:11;;;;;;;;;9.75;9.25;;;;;24.18;53.28;101188.56;5020459;28;45650;-65
2023/06/21 08:45:37;;;;;;;;;14.00;11.75;;;;;24.24;53.14;101193.53;5020742;28;45408;-65
2023/06/21 08:48:05;;;;;;;;;11.25;9.75;;;;;24.31;53.10;101196.69;5020739;28;45341;-65
2023/06/21 08:50:34;;;;;;;;;11.50;9.75;;;;;24.37;52.94;101195.44;5020489;28;45336;-65
2023/06/21 08:53:04;;;;;;;;;13.50;10.00;;;;;24.42;53.11;101196.00;5020252;28;46445;-65
2023/06/21 08:55:35;;;;;;;;;9.25;9.25;;;;;24.48;52.74;101193.75;5020406;28;45469;-65
2023/06/21 08:58:03;;;;;;;;;9.75;9.75;;;;;24.54;52.78;101205.94;5020348;28;45287;-65
2023/06/21 09:00:33;;;;;;;;;7.50;7.25;;;;;24.58;52.90;101194.00;5020240;28;45308;-65
2023/06/21 09:03:24;;;;;;;;;11.25;8.25;;;;;24.64;52.56;101207.06;5020258;28;46412;-65
2023/06/21 09:06:05;;;;;;;;;11.50;11.00;;;;;24.69;52.89;101200.53;5019803;28;45401;-64
2023/06/21 09:08:32;;;;;;;;;8.75;8.00;;;;;24.75;52.87;101197.44;5020327;28;45261;-65
2023/06/21 09:10:59;;;;;;;;;11.00;8.50;;;;;24.81;52.67;101202.41;5020170;28;45326;-65
2023/06/21 09:13:27;;;;;;;;;10.25;10.00;;;;;24.85;52.79;101200.38;5020125;28;45926;-65
2023/06/21 09:15:54;;;;;;;;;10.00;8.75;;;;;24.89;52.66;101196.50;5019729;28;45237;-65
2023/06/21 09:18:20;;;;;;;;;9.50;9.00;;;;;24.96;52.25;101205.88;5035470;28;45191;-65
2023/06/21 09:20:50;;;;;;;;;10.50;9.00;;;;;25.01;52.23;101202.88;5019724;28;45438;-65
2023/06/21 09:23:16;;;;;;;;;8.75;8.75;;;;;25.07;52.14;101195.25;5019960;28;45265;-64
2023/06/21 09:25:44;;;;;;;;;8.50;7.00;;;;;25.11;52.25;101195.91;5020153;28;45456;-65
2023/06/21 09:28:13;;;;;;;;;9.50;9.00;;;;;25.17;51.85;101198.19;5019980;28;45227;-65
2023/06/21 09:30:40;;;;;;;;;7.50;6.25;;;;;25.26;52.46;101199.38;5035314;28;45384;-65
2023/06/21 09:33:06;;;;;;;;;8.25;7.00;;;;;25.30;52.26;101196.34;5034861;28;47446;-64
2023/06/21 09:35:32;;;;;;;;;9.00;9.00;;;;;25.40;51.72;101201.97;5019689;28;45389;-65
2023/06/21 09:37:57;;;;;;;;;7.25;5.25;;;;;25.47;52.08;101194.34;5002149;28;45308;-64
2023/06/21 09:40:23;;;;;;;;;7.00;6.25;;;;;25.55;52.03;101196.50;5019862;28;45554;-64
2023/06/21 09:42:48;;;;;;;;;9.50;8.50;;;;;25.62;51.44;101193.28;5019837;28;45442;-64
2023/06/21 09:45:20;;;;;;;;;10.00;7.25;;;;;25.71;51.83;101198.94;5019693;28;48440;-65
2023/06/21 09:47:46;;;;;;;;;9.00;7.25;;;;;25.82;51.85;101200.88;5034880;28;45368;-65
2023/06/21 09:50:12;;;;;;;;;8.75;8.75;;;;;25.90;51.33;101207.44;5019585;28;45504;-65
2023/06/21 09:52:42;;;;;;;;;9.50;9.00;;;;;25.99;51.40;101214.00;5019333;28;45446;-65
2023/06/21 09:55:11;;;;;;;;;9.25;9.25;;;;;26.07;51.07;101205.41;5019883;28;45412;-65
2023/06/21 09:57:37;;;;;;;;;9.50;8.25;;;;;26.14;50.83;101217.44;5019805;28;45418;-65
2023/06/21 10:00:06;;;;;;;;;8.50;7.25;;;;;26.23;50.97;101208.69;5019518;28;45234;-65
2023/06/21 10:02:52;;;;;;;;;8.25;8.25;;;;;26.32;50.54;101215.22;5019381;28;46448;-65
2023/06/21 10:05:19;;;;;;;;;9.50;7.50;;;;;26.39;51.03;101207.53;5034501;28;45367;-65
2023/06/21 10:07:45;;;;;;;;;8.00;8.00;;;;;26.43;50.75;101211.75;5019455;28;45274;-64
2023/06/21 10:10:12;;;;;;;;;9.25;9.00;;;;;26.49;50.77;101213.13;5034699;28;45305;-65
2023/06/21 10:12:38;;;;;;;;;9.25;8.25;;;;;26.52;50.39;101211.06;5019367;28;46080;-65
2023/06/21 10:15:04;;;;;;;;;9.00;7.75;;;;;26.57;50.34;101208.88;5019233;28;45158;-65
2023/06/21 10:17:31;;;;;;;;;9.00;9.00;;;;;26.60;50.16;101200.59;5034840;28;45182;-66
2023/06/21 10:19:59;;;;;;;;;7.75;7.00;;;;;26.64;49.42;101206.59;5019111;28;45594;-64
2023/06/21 10:22:25;;;;;;;;;11.00;9.75;;;;;26.67;50.13;101205.50;5028263;28;45439;-65
2023/06/21 10:24:52;;;;;;;;;16.00;11.75;;;;;26.69;49.62;101206.25;5011662;28;54558;-64
2023/06/21 10:27:19;;;;;;;;;12.00;10.00;;;;;26.71;49.69;101205.16;5018040;28;45318;-64
2023/06/21 10:29:52;;;;;;;;;10.50;10.00;;;;;26.73;49.85;101205.94;5019161;28;45516;-65
2023/06/21 10:32:20;;;;;;;;;9.00;9.00;;;;;26.74;49.43;101210.34;5019333;28;46303;-65
2023/06/21 10:35:00;;;;;;;;;11.00;9.00;;;;;26.76;49.12;101207.53;5018891;28;45498;-65
2023/06/21 10:37:53;;;;;;;;;5.25;5.25;;;;;26.79;48.99;101201.91;5019398;28;45359;-65
2023/06/21 10:40:19;;;;;;;;;9.00;9.00;;;;;26.84;49.52;101204.25;5018901;28;45296;-65
2023/06/21 10:42:45;;;;;;;;;11.25;11.25;;;;;26.94;49.18;101197.19;5019144;28;45351;-65
2023/06/21 10:45:12;;;;;;;;;12.75;10.50;;;;;27.07;49.38;101200.66;5021677;28;45308;-65
2023/06/21 10:47:39;;;;;;;;;10.25;9.50;;;;;27.26;49.50;101199.25;5037834;28;45383;-65
2023/06/21 10:50:11;;;;;;;;;10.25;10.25;;;;;27.48;49.59;101202.97;5022281;28;45194;-65
2023/06/21 10:52:37;;;;;;;;;8.00;8.00;;;;;27.68;49.12;101199.53;5022134;28;45410;-65
2023/06/21 10:55:03;;;;;;;;;9.25;9.25;;;;;27.88;48.67;101199.81;5022205;28;45244;-65
2023/06/21 10:57:31;;;;;;;;;11.00;9.75;;;;;28.07;49.26;101201.06;5022335;28;45503;-65
2023/06/21 11:00:01;;;;;;;;;10.00;9.00;;;;;28.18;48.76;101191.06;5023124;28;45438;-65
2023/06/21 11:02:27;;;;;;;;;9.25;8.00;;;;;28.41;48.82;101201.81;5021832;28;45339;-65
2023/06/21 11:05:11;;;;;;;;;9.00;9.00;;;;;28.63;48.25;101202.72;5022178;28;45238;-65
2023/06/21 11:07:36;;;;;;;;;9.00;8.75;;;;;28.84;48.49;101203.69;5022134;28;45446;-65
2023/06/21 11:10:06;;;;;;;;;11.50;10.75;;;;;29.10;48.47;101199.72;5037431;28;45584;-65
2023/06/21 11:12:34;;;;;;;;;10.00;8.75;;;;;29.37;48.32;101198.34;5021841;28;47012;-65
2023/06/21 11:15:00;;;;;;;;;9.50;8.00;;;;;29.65;48.33;101197.66;5021772;28;45339;-66
2023/06/21 11:17:28;;;;;;;;;8.00;7.25;;;;;29.99;48.70;101193.81;5021993;28;45419;-66
2023/06/21 11:19:54;;;;;;;;;5.25;5.25;;;;;30.35;48.55;101201.47;5021812;28;45407;-66